Time;durP1;ratioP1;P1;durP2;ratioP2;P2;SDS_P1;SDS_P2;PMS_P1;PMS_P2;Temp;Humidity;BMP_temperature;BMP_pressure;BME280_temperature;BME280_humidity;BME280_pressure;Samples;Min_cycle;Max_cycle;Signal;HPM_P1;HPM_P2
2022/07/09 00:01:24;;;;;;;;;;;18.90;99.90;;;;;;4981830;28;20301;-65
2022/07/09 00:03:51;;;;;;;;;;;18.90;99.90;;;;;;4983830;28;20028;-66
2022/07/09 00:06:17;;;;;;;;;;;18.90;99.90;;;;;;4987821;28;20007;-66
2022/07/09 00:08:43;;;;;;;;;;;18.70;99.90;;;;;;4975241;28;20041;-66
2022/07/09 00:11:08;;;;;;;;;;;18.60;99.90;;;;;;4971784;28;19914;-66
2022/07/09 00:13:34;;;;;;;;;;;18.50;99.90;;;;;;4977983;28;20020;-66
2022/07/09 00:16:00;;;;;;;;;;;18.40;99.90;;;;;;4976550;28;20364;-66
2022/07/09 00:18:25;;;;;;;;;;;18.30;99.90;;;;;;4973815;28;19918;-66
2022/07/09 00:20:51;;;;;;;;;;;18.20;99.90;;;;;;4978995;28;19921;-67
2022/07/09 00:23:16;;;;;;;;;;;18.10;99.90;;;;;;4979184;28;19915;-66
2022/07/09 00:25:42;;;;;;;;;;;18.00;99.90;;;;;;4977731;28;19941;-66
2022/07/09 00:28:07;;;;;;;;;;;17.90;99.90;;;;;;4973124;28;19922;-66
2022/07/09 00:30:33;;;;;;;;;;;17.80;99.90;;;;;;4978523;28;19914;-66
2022/07/09 00:32:58;;;;;;;;;;;17.70;99.90;;;;;;4976962;28;19962;-66
2022/07/09 00:35:24;;;;;;;;;;;17.60;99.90;;;;;;4973310;28;20383;-66
2022/07/09 00:37:50;;;;;;;;;;;17.50;99.90;;;;;;4969887;28;19918;-65
2022/07/09 00:40:15;;;;;;;;;;;17.50;99.90;;;;;;4974873;28;20371;-66
2022/07/09 00:42:41;;;;;;;;;;;17.40;99.90;;;;;;4982124;28;19968;-65
2022/07/09 00:45:06;;;;;;;;;;;17.40;99.90;;;;;;4975283;28;19913;-67
2022/07/09 00:47:32;;;;;;;;;;;17.40;99.90;;;;;;4972845;28;19964;-66
2022/07/09 00:49:58;;;;;;;;;;;17.30;99.90;;;;;;4973055;28;19925;-66
2022/07/09 00:52:23;;;;;;;;;;;17.20;99.90;;;;;;4977987;28;20013;-66
2022/07/09 00:54:50;;;;;;;;;;;17.20;99.90;;;;;;4969891;28;20291;-66
2022/07/09 00:57:16;;;;;;;;;;;17.30;99.90;;;;;;4972377;28;19914;-66
2022/07/09 00:59:42;;;;;;;;;;;17.20;99.90;;;;;;4973161;28;19921;-66
2022/07/09 01:02:08;;;;;;;;;;;17.10;99.90;;;;;;4976734;28;20369;-66
2022/07/09 01:04:34;;;;;;;;;;;17.00;99.90;;;;;;4955661;28;20027;-67
2022/07/09 01:07:00;;;;;;;;;;;17.00;99.90;;;;;;4975120;28;19930;-67
2022/07/09 01:09:26;;;;;;;;;;;16.90;99.90;;;;;;4976207;28;19929;-66
2022/07/09 01:11:51;;;;;;;;;;;16.90;99.90;;;;;;4977152;28;19968;-65
2022/07/09 01:14:17;;;;;;;;;;;16.90;99.90;;;;;;4969453;28;19972;-66
2022/07/09 01:16:43;;;;;;;;;;;16.80;99.90;;;;;;4977121;28;19922;-66
2022/07/09 01:19:08;;;;;;;;;;;16.70;99.90;;;;;;4975058;28;19996;-66
2022/07/09 01:21:34;;;;;;;;;;;16.70;99.90;;;;;;4957097;28;19988;-67
2022/07/09 01:24:00;;;;;;;;;;;16.70;99.90;;;;;;4976700;28;19989;-67
2022/07/09 01:26:27;;;;;;;;;;;16.60;99.90;;;;;;4976942;28;20150;-66
2022/07/09 01:28:53;;;;;;;;;;;16.60;99.90;;;;;;4971166;28;20373;-67
2022/07/09 01:31:19;;;;;;;;;;;16.60;99.90;;;;;;4972543;28;19918;-66
2022/07/09 01:33:45;;;;;;;;;;;16.50;99.90;;;;;;4955627;28;19926;-66
2022/07/09 01:36:11;;;;;;;;;;;16.50;99.90;;;;;;4968413;28;19914;-66
2022/07/09 01:38:36;;;;;;;;;;;16.50;99.90;;;;;;4959157;28;20445;-66
2022/07/09 01:41:02;;;;;;;;;;;16.40;99.90;;;;;;4979445;28;19922;-67
2022/07/09 01:43:28;;;;;;;;;;;16.30;99.90;;;;;;4975246;28;19915;-66
2022/07/09 01:45:53;;;;;;;;;;;16.20;99.90;;;;;;4977354;28;19976;-66
2022/07/09 01:48:19;;;;;;;;;;;16.20;99.90;;;;;;4964522;28;19914;-66
2022/07/09 01:50:45;;;;;;;;;;;16.20;99.90;;;;;;4968492;28;19914;-67
2022/07/09 01:53:10;;;;;;;;;;;16.20;99.90;;;;;;4969947;28;19921;-66
2022/07/09 01:55:36;;;;;;;;;;;16.20;99.90;;;;;;4971688;28;19921;-66
2022/07/09 01:58:02;;;;;;;;;;;16.20;99.90;;;;;;4979391;28;20299;-67
2022/07/09 02:00:28;;;;;;;;;;;16.10;99.90;;;;;;4976478;28;20259;-67
2022/07/09 02:02:55;;;;;;;;;;;16.10;99.90;;;;;;4977853;28;19918;-66
2022/07/09 02:05:21;;;;;;;;;;;16.00;99.90;;;;;;4977853;28;19984;-67
2022/07/09 02:07:46;;;;;;;;;;;15.90;99.90;;;;;;4974872;28;20360;-67
2022/07/09 02:10:12;;;;;;;;;;;15.90;99.90;;;;;;4970659;28;19969;-69
2022/07/09 02:12:38;;;;;;;;;;;15.90;99.90;;;;;;4978496;28;19941;-66
2022/07/09 02:15:04;;;;;;;;;;;15.90;99.90;;;;;;4978324;28;20288;-66
2022/07/09 02:17:32;;;;;;;;;;;15.80;99.90;;;;;;4975101;28;20331;-66
2022/07/09 02:19:58;;;;;;;;;;;15.80;99.90;;;;;;4974283;28;19972;-66
2022/07/09 02:22:23;;;;;;;;;;;15.70;99.90;;;;;;4975276;28;20347;-66
2022/07/09 02:24:49;;;;;;;;;;;15.70;99.90;;;;;;4975347;28;20372;-67
2022/07/09 02:27:15;;;;;;;;;;;15.80;99.90;;;;;;4974733;28;19921;-67
2022/07/09 02:29:40;;;;;;;;;;;15.80;99.90;;;;;;4974648;28;19914;-65
2022/07/09 02:32:06;;;;;;;;;;;15.80;99.90;;;;;;4972262;28;20292;-66
2022/07/09 02:34:32;;;;;;;;;;;15.80;99.90;;;;;;4985726;28;20029;-67
2022/07/09 02:36:57;;;;;;;;;;;15.70;99.90;;;;;;4973573;28;20427;-65
2022/07/09 02:39:23;;;;;;;;;;;15.70;99.90;;;;;;4980553;28;19914;-66
2022/07/09 02:41:50;;;;;;;;;;;15.80;99.90;;;;;;4977591;28;19918;-66
2022/07/09 02:44:15;;;;;;;;;;;15.70;99.90;;;;;;4970780;28;19921;-67
2022/07/09 02:46:41;;;;;;;;;;;15.70;99.90;;;;;;4973699;28;19970;-66
2022/07/09 02:49:06;;;;;;;;;;;15.70;99.90;;;;;;4980254;28;19924;-67
2022/07/09 02:51:32;;;;;;;;;;;15.60;99.90;;;;;;4978865;28;20017;-67
2022/07/09 02:53:57;;;;;;;;;;;15.50;99.90;;;;;;4977671;28;19926;-66
2022/07/09 02:56:23;;;;;;;;;;;15.50;99.90;;;;;;4975953;28;19914;-68
2022/07/09 02:58:48;;;;;;;;;;;15.50;99.90;;;;;;4972023;28;19918;-66
2022/07/09 03:01:14;;;;;;;;;;;15.40;99.90;;;;;;4978189;28;19957;-66
2022/07/09 03:03:40;;;;;;;;;;;15.40;99.90;;;;;;4960634;28;20455;-66
2022/07/09 03:06:08;;;;;;;;;;;15.40;99.90;;;;;;4975167;28;19921;-67
2022/07/09 03:08:34;;;;;;;;;;;15.50;99.90;;;;;;4966219;28;20000;-66
2022/07/09 03:10:59;;;;;;;;;;;15.50;99.90;;;;;;4956361;28;19997;-66
2022/07/09 03:13:25;;;;;;;;;;;15.30;99.90;;;;;;4973227;28;19940;-66
2022/07/09 03:15:51;;;;;;;;;;;15.30;99.90;;;;;;4972029;28;20012;-66
2022/07/09 03:18:16;;;;;;;;;;;15.30;99.90;;;;;;4968647;28;19918;-66
2022/07/09 03:20:42;;;;;;;;;;;15.30;99.90;;;;;;4971794;28;19929;-66
2022/07/09 03:23:07;;;;;;;;;;;15.20;99.90;;;;;;4974335;28;20009;-68
2022/07/09 03:25:33;;;;;;;;;;;15.20;99.90;;;;;;4972027;28;20395;-66
2022/07/09 03:27:59;;;;;;;;;;;15.10;99.90;;;;;;4974240;28;19921;-66
2022/07/09 03:30:24;;;;;;;;;;;15.00;99.90;;;;;;4971308;28;19918;-67
2022/07/09 03:32:51;;;;;;;;;;;15.00;99.90;;;;;;4972869;28;19933;-68
2022/07/09 03:35:16;;;;;;;;;;;15.00;99.90;;;;;;4972801;28;19922;-66
2022/07/09 03:37:42;;;;;;;;;;;14.90;99.90;;;;;;4970049;28;19921;-66
2022/07/09 03:40:08;;;;;;;;;;;14.90;99.90;;;;;;4971720;28;20018;-67
2022/07/09 03:42:34;;;;;;;;;;;14.80;99.90;;;;;;4972121;28;19914;-66
2022/07/09 03:45:00;;;;;;;;;;;14.80;99.90;;;;;;4971026;28;19934;-66
2022/07/09 03:47:25;;;;;;;;;;;14.70;99.90;;;;;;4972159;28;19922;-66
2022/07/09 03:49:51;;;;;;;;;;;14.60;99.90;;;;;;4971292;28;20012;-66
2022/07/09 03:52:16;;;;;;;;;;;14.50;99.90;;;;;;4966962;28;19914;-66
2022/07/09 03:54:42;;;;;;;;;;;14.50;99.90;;;;;;4972941;28;19970;-66
2022/07/09 03:57:07;;;;;;;;;;;14.50;99.90;;;;;;4972526;28;20070;-66
2022/07/09 03:59:33;;;;;;;;;;;14.50;99.90;;;;;;4972895;28;19914;-66
2022/07/09 04:01:59;;;;;;;;;;;14.40;99.90;;;;;;4958314;28;19961;-66
2022/07/09 04:04:24;;;;;;;;;;;14.40;99.90;;;;;;4971172;28;20005;-66
2022/07/09 04:06:50;;;;;;;;;;;14.40;99.90;;;;;;4973562;28;20357;-67
2022/07/09 04:09:15;;;;;;;;;;;14.30;99.90;;;;;;4971132;28;19914;-66
2022/07/09 04:11:41;;;;;;;;;;;14.30;99.90;;;;;;4972764;28;20372;-66
2022/07/09 04:14:06;;;;;;;;;;;14.30;99.90;;;;;;4971803;28;20327;-66
2022/07/09 04:16:32;;;;;;;;;;;14.20;99.90;;;;;;4973202;28;19957;-67
2022/07/09 04:18:58;;;;;;;;;;;14.20;99.90;;;;;;4971890;28;19988;-66
2022/07/09 04:21:23;;;;;;;;;;;14.20;99.90;;;;;;4973344;28;20361;-67
2022/07/09 04:23:49;;;;;;;;;;;14.20;99.90;;;;;;4971006;28;20550;-66
2022/07/09 04:26:15;;;;;;;;;;;14.20;99.90;;;;;;4973268;28;19910;-66
2022/07/09 04:28:41;;;;;;;;;;;14.20;99.90;;;;;;4973402;28;19918;-65
2022/07/09 04:31:06;;;;;;;;;;;14.10;99.90;;;;;;4974556;28;19914;-67
2022/07/09 04:33:32;;;;;;;;;;;14.10;99.90;;;;;;4973088;28;19930;-67
2022/07/09 04:35:57;;;;;;;;;;;14.10;99.90;;;;;;4972145;28;19925;-66
2022/07/09 04:38:24;;;;;;;;;;;14.10;99.90;;;;;;4973732;28;19914;-66
2022/07/09 04:40:50;;;;;;;;;;;14.20;99.90;;;;;;4970207;28;19914;-66
2022/07/09 04:43:16;;;;;;;;;;;14.20;99.90;;;;;;4975649;28;19921;-67
2022/07/09 04:45:41;;;;;;;;;;;14.20;99.90;;;;;;4971286;28;20004;-67
2022/07/09 04:48:07;;;;;;;;;;;14.20;99.90;;;;;;4971780;28;19914;-66
2022/07/09 04:50:32;;;;;;;;;;;14.30;99.90;;;;;;4972930;28;19914;-67
2022/07/09 04:52:58;;;;;;;;;;;14.30;99.90;;;;;;4975191;28;19918;-67
2022/07/09 04:55:23;;;;;;;;;;;14.20;99.90;;;;;;4974269;28;19921;-65
2022/07/09 04:57:49;;;;;;;;;;;14.20;99.90;;;;;;4974285;28;19918;-67
2022/07/09 05:00:15;;;;;;;;;;;14.20;99.90;;;;;;4973000;28;19918;-66
2022/07/09 05:02:42;;;;;;;;;;;14.20;99.90;;;;;;4970611;28;19925;-66
2022/07/09 05:05:07;;;;;;;;;;;14.30;99.90;;;;;;4967957;28;19914;-66
2022/07/09 05:07:33;;;;;;;;;;;14.30;99.90;;;;;;4973944;28;20049;-66
2022/07/09 05:10:00;;;;;;;;;;;14.10;99.90;;;;;;4975217;28;19914;-66
2022/07/09 05:12:27;;;;;;;;;;;14.00;99.90;;;;;;4975344;28;20008;-67
2022/07/09 05:14:52;;;;;;;;;;;14.00;99.90;;;;;;4974162;28;20304;-66
2022/07/09 05:17:18;;;;;;;;;;;14.10;99.90;;;;;;4973517;28;19921;-66
2022/07/09 05:19:44;;;;;;;;;;;14.10;99.90;;;;;;4975521;28;19914;-67
2022/07/09 05:22:10;;;;;;;;;;;14.20;99.90;;;;;;4976438;28;19997;-66
2022/07/09 05:24:35;;;;;;;;;;;14.40;99.90;;;;;;4973275;28;20061;-66
2022/07/09 05:27:01;;;;;;;;;;;14.40;99.90;;;;;;4974881;28;19922;-65
2022/07/09 05:29:27;;;;;;;;;;;14.50;99.90;;;;;;4973158;28;20291;-67
2022/07/09 05:31:52;;;;;;;;;;;14.50;99.90;;;;;;4986552;28;19921;-67
2022/07/09 05:34:18;;;;;;;;;;;14.60;99.90;;;;;;4975360;28;19922;-67
2022/07/09 05:36:44;;;;;;;;;;;14.70;99.90;;;;;;4972590;28;19961;-68
2022/07/09 05:39:09;;;;;;;;;;;14.70;99.90;;;;;;4971997;28;20293;-66
2022/07/09 05:41:35;;;;;;;;;;;14.80;99.90;;;;;;4957365;28;19977;-67
2022/07/09 05:44:03;;;;;;;;;;;15.00;99.90;;;;;;4973504;28;20340;-67
2022/07/09 05:46:29;;;;;;;;;;;15.10;99.90;;;;;;4975798;28;19961;-67
2022/07/09 05:48:55;;;;;;;;;;;15.10;99.90;;;;;;4973500;28;20351;-66
2022/07/09 05:51:21;;;;;;;;;;;15.20;99.90;;;;;;4975998;28;19966;-66
2022/07/09 05:53:46;;;;;;;;;;;15.30;99.90;;;;;;4975178;28;20320;-66
2022/07/09 05:56:12;;;;;;;;;;;15.40;99.90;;;;;;4974869;28;19914;-66
2022/07/09 05:58:38;;;;;;;;;;;15.50;99.90;;;;;;4973057;28;19918;-67
2022/07/09 06:01:05;;;;;;;;;;;15.90;99.90;;;;;;4954202;28;20253;-66
2022/07/09 06:03:30;;;;;;;;;;;16.30;99.90;;;;;;4972218;28;19915;-64
2022/07/09 06:05:56;;;;;;;;;;;16.70;99.90;;;;;;4973560;28;19914;-66
2022/07/09 06:08:22;;;;;;;;;;;17.00;99.90;;;;;;4969702;28;19996;-67
2022/07/09 06:10:48;;;;;;;;;;;17.20;99.90;;;;;;4972112;28;20360;-66
2022/07/09 06:13:13;;;;;;;;;;;17.30;99.90;;;;;;4976088;28;20288;-65
2022/07/09 06:15:39;;;;;;;;;;;17.20;99.90;;;;;;4976217;28;19914;-66
2022/07/09 06:18:05;;;;;;;;;;;17.30;99.90;;;;;;4970744;28;20402;-67
2022/07/09 06:20:31;;;;;;;;;;;17.30;99.90;;;;;;4973339;28;19914;-67
2022/07/09 06:22:56;;;;;;;;;;;17.30;99.90;;;;;;4972886;28;19929;-66
2022/07/09 06:25:22;;;;;;;;;;;17.40;99.90;;;;;;4973736;28;19914;-65
2022/07/09 06:27:48;;;;;;;;;;;17.40;99.90;;;;;;4973980;28;19922;-66
2022/07/09 06:30:14;;;;;;;;;;;17.30;99.90;;;;;;4956851;28;19926;-66
2022/07/09 06:32:39;;;;;;;;;;;17.30;99.90;;;;;;4972817;28;20355;-67
2022/07/09 06:35:05;;;;;;;;;;;17.20;99.90;;;;;;4970853;28;20022;-66
2022/07/09 06:37:31;;;;;;;;;;;17.10;99.90;;;;;;4951281;28;19919;-67
2022/07/09 06:39:59;;;;;;;;;;;17.20;99.90;;;;;;4971622;28;19924;-66
2022/07/09 06:42:25;;;;;;;;;;;17.30;99.90;;;;;;4972487;28;20008;-67
2022/07/09 06:44:50;;;;;;;;;;;17.50;99.90;;;;;;4974563;28;19968;-66
2022/07/09 06:47:16;;;;;;;;;;;17.70;99.90;;;;;;4972747;28;19992;-68
2022/07/09 06:49:42;;;;;;;;;;;18.00;99.90;;;;;;4971300;28;19914;-66
2022/07/09 06:52:08;;;;;;;;;;;18.30;99.90;;;;;;4954261;28;19914;-67
2022/07/09 06:54:34;;;;;;;;;;;18.60;99.90;;;;;;4970976;28;19922;-66
2022/07/09 06:57:00;;;;;;;;;;;18.80;99.90;;;;;;4969465;28;20284;-65
2022/07/09 06:59:25;;;;;;;;;;;18.90;99.90;;;;;;4971968;28;19914;-67
2022/07/09 07:01:51;;;;;;;;;;;19.30;99.90;;;;;;4971324;28;20368;-66
2022/07/09 07:04:17;;;;;;;;;;;19.60;99.90;;;;;;4972278;28;19921;-67
2022/07/09 07:06:43;;;;;;;;;;;19.90;99.90;;;;;;4980363;28;19945;-67
2022/07/09 07:09:09;;;;;;;;;;;20.10;99.90;;;;;;4954649;28;19914;-68
2022/07/09 07:11:34;;;;;;;;;;;20.30;99.90;;;;;;4968115;28;19918;-68
2022/07/09 07:14:00;;;;;;;;;;;20.60;99.90;;;;;;4967606;28;19922;-67
2022/07/09 07:16:26;;;;;;;;;;;20.60;99.90;;;;;;4986332;28;20523;-67
2022/07/09 07:18:52;;;;;;;;;;;20.70;99.90;;;;;;4968206;28;19914;-68
2022/07/09 07:21:17;;;;;;;;;;;20.80;99.90;;;;;;4956953;28;19918;-67
2022/07/09 07:23:43;;;;;;;;;;;21.10;99.90;;;;;;4965869;28;19914;-67
2022/07/09 07:26:08;;;;;;;;;;;21.10;99.90;;;;;;4970899;28;20362;-67
2022/07/09 07:28:34;;;;;;;;;;;21.20;99.90;;;;;;4969938;28;20340;-66
2022/07/09 07:30:59;;;;;;;;;;;21.40;99.90;;;;;;4965880;28;20399;-67
2022/07/09 07:33:25;;;;;;;;;;;21.50;99.90;;;;;;4967461;28;19926;-66
2022/07/09 07:35:51;;;;;;;;;;;21.40;99.90;;;;;;4968911;28;19914;-68
2022/07/09 07:38:16;;;;;;;;;;;21.30;99.90;;;;;;4969150;28;20254;-67
2022/07/09 07:40:42;;;;;;;;;;;21.20;99.90;;;;;;4966310;28;20651;-67
2022/07/09 07:43:10;;;;;;;;;;;21.20;99.90;;;;;;4966394;28;19922;-67
2022/07/09 07:45:36;;;;;;;;;;;21.30;99.90;;;;;;4966562;28;20246;-67
2022/07/09 07:48:01;;;;;;;;;;;21.50;99.90;;;;;;4979029;28;19914;-67
2022/07/09 07:50:27;;;;;;;;;;;21.60;99.90;;;;;;4966616;28;20320;-68
2022/07/09 07:52:52;;;;;;;;;;;21.80;99.90;;;;;;4974210;28;20388;-68
2022/07/09 07:55:18;;;;;;;;;;;21.80;99.90;;;;;;4965254;28;19929;-68
2022/07/09 07:57:43;;;;;;;;;;;21.50;99.90;;;;;;4966846;28;20048;-65
2022/07/09 08:00:10;;;;;;;;;;;21.00;99.90;;;;;;4964815;28;19921;-69
2022/07/09 08:02:35;;;;;;;;;;;20.80;99.90;;;;;;4967218;28;20534;-68
2022/07/09 08:05:01;;;;;;;;;;;20.60;99.90;;;;;;4966904;28;19921;-67
2022/07/09 08:07:26;;;;;;;;;;;20.60;99.90;;;;;;4963396;28;19922;-68
2022/07/09 08:09:53;;;;;;;;;;;20.80;99.90;;;;;;4963986;28;20277;-68
2022/07/09 08:12:18;;;;;;;;;;;20.90;99.90;;;;;;4966548;28;19915;-67
2022/07/09 08:14:44;;;;;;;;;;;21.00;99.90;;;;;;4968497;28;20051;-67
2022/07/09 08:17:10;;;;;;;;;;;20.90;99.90;;;;;;4969643;28;20346;-68
2022/07/09 08:19:36;;;;;;;;;;;20.90;99.90;;;;;;4968289;28;20020;-67
2022/07/09 08:22:01;;;;;;;;;;;20.80;99.90;;;;;;4970531;28;20289;-68
2022/07/09 08:24:27;;;;;;;;;;;20.80;99.90;;;;;;4972771;28;19929;-69
2022/07/09 08:26:53;;;;;;;;;;;20.80;99.90;;;;;;4976614;28;20250;-68
2022/07/09 08:29:18;;;;;;;;;;;20.80;99.90;;;;;;4969972;28;19937;-68
2022/07/09 08:31:44;;;;;;;;;;;20.60;99.90;;;;;;4971055;28;19937;-67
2022/07/09 08:34:10;;;;;;;;;;;20.70;99.90;;;;;;4965848;28;19976;-68
2022/07/09 08:36:36;;;;;;;;;;;20.50;99.90;;;;;;4971510;28;19922;-68
2022/07/09 08:39:01;;;;;;;;;;;20.50;99.90;;;;;;4967272;28;19957;-68
2022/07/09 08:41:27;;;;;;;;;;;20.60;99.90;;;;;;4968304;28;19929;-68
2022/07/09 08:43:53;;;;;;;;;;;20.60;99.90;;;;;;4963006;28;19929;-65
2022/07/09 08:46:19;;;;;;;;;;;20.50;99.90;;;;;;4958550;28;20364;-66
2022/07/09 08:48:45;;;;;;;;;;;20.50;99.90;;;;;;4969400;28;19969;-66
2022/07/09 08:51:11;;;;;;;;;;;20.60;99.90;;;;;;4961746;28;19923;-65
2022/07/09 08:53:40;;;;;;;;;;;20.60;99.90;;;;;;4970723;28;20297;-67
2022/07/09 08:56:05;;;;;;;;;;;20.70;99.90;;;;;;4971638;28;19921;-67
2022/07/09 08:58:31;;;;;;;;;;;21.00;99.90;;;;;;4967976;28;19914;-66
2022/07/09 09:00:58;;;;;;;;;;;21.20;99.90;;;;;;4975473;28;19969;-67
2022/07/09 09:03:24;;;;;;;;;;;21.50;99.90;;;;;;4974706;28;19914;-65
2022/07/09 09:06:08;;;;;;;;;;;21.50;99.90;;;;;;4972390;28;19928;-67
2022/07/09 09:08:38;;;;;;;;;;;21.50;99.90;;;;;;4946909;29;20352;-67
2022/07/09 09:11:04;;;;;;;;;;;21.50;99.90;;;;;;4956937;28;19914;-66
2022/07/09 09:13:30;;;;;;;;;;;21.60;99.90;;;;;;4971145;28;19932;-66
2022/07/09 09:16:06;;;;;;;;;;;21.30;99.90;;;;;;4971862;28;20005;-66
2022/07/09 09:18:34;;;;;;;;;;;21.30;99.90;;;;;;4960927;28;19921;-66
2022/07/09 09:21:06;;;;;;;;;;;21.70;99.90;;;;;;4968289;28;19918;-65
2022/07/09 09:23:41;;;;;;;;;;;21.90;99.90;;;;;;4964345;28;19957;-66
2022/07/09 09:26:15;;;;;;;;;;;22.00;99.90;;;;;;4976712;28;19914;-65
2022/07/09 09:28:47;;;;;;;;;;;22.20;99.90;;;;;;4982188;28;19957;-67
2022/07/09 09:31:23;;;;;;;;;;;22.10;99.90;;;;;;4962133;28;20349;-65
2022/07/09 09:33:50;;;;;;;;;;;21.90;99.90;;;;;;4974728;28;19981;-66
2022/07/09 09:36:30;;;;;;;;;;;21.50;99.90;;;;;;4959477;28;20006;-68
2022/07/09 09:39:06;;;;;;;;;;;21.60;99.90;;;;;;4959557;28;19976;-68
2022/07/09 09:41:33;;;;;;;;;;;21.50;99.90;;;;;;4967216;28;20528;-66
2022/07/09 09:43:59;;;;;;;;;;;21.40;99.90;;;;;;4965992;28;20291;-68
2022/07/09 09:46:25;;;;;;;;;;;21.50;99.90;;;;;;4977735;28;19921;-67
2022/07/09 09:48:50;;;;;;;;;;;21.40;99.90;;;;;;4965185;28;19915;-67
2022/07/09 09:51:18;;;;;;;;;;;21.50;99.90;;;;;;4969229;28;19968;-65
2022/07/09 09:53:44;;;;;;;;;;;21.60;99.90;;;;;;4967887;28;20435;-67
2022/07/09 09:56:10;;;;;;;;;;;21.80;99.90;;;;;;4976547;28;19914;-66
2022/07/09 09:58:35;;;;;;;;;;;22.00;99.90;;;;;;4975035;28;20288;-68
2022/07/09 10:01:01;;;;;;;;;;;22.00;99.90;;;;;;4976285;28;19918;-66
2022/07/09 10:03:27;;;;;;;;;;;22.10;99.80;;;;;;4969212;28;19914;-67
2022/07/09 10:05:52;;;;;;;;;;;22.20;98.00;;;;;;4974304;28;20368;-66
2022/07/09 10:08:18;;;;;;;;;;;22.30;97.00;;;;;;4965724;28;19924;-66
2022/07/09 10:10:50;;;;;;;;;;;22.40;96.90;;;;;;4972184;28;19910;-68
2022/07/09 10:13:20;;;;;;;;;;;22.50;95.70;;;;;;4978165;28;19961;-69
2022/07/09 10:15:48;;;;;;;;;;;22.40;96.50;;;;;;4970757;28;20009;-68
2022/07/09 10:18:16;;;;;;;;;;;22.20;96.60;;;;;;4971080;28;19915;-69
2022/07/09 10:20:43;;;;;;;;;;;22.20;97.60;;;;;;4973619;28;19914;-69
2022/07/09 10:23:08;;;;;;;;;;;22.30;98.20;;;;;;4970218;28;19933;-68
2022/07/09 10:25:44;;;;;;;;;;;22.50;97.30;;;;;;4964891;28;20013;-68
2022/07/09 10:28:16;;;;;;;;;;;22.40;97.50;;;;;;4970546;28;19961;-66
2022/07/09 10:30:42;;;;;;;;;;;22.40;97.00;;;;;;4967693;28;19994;-67
2022/07/09 10:33:09;;;;;;;;;;;22.50;96.40;;;;;;4970957;28;20307;-68
2022/07/09 10:35:41;;;;;;;;;;;22.50;95.20;;;;;;4961226;28;19973;-69
2022/07/09 10:38:07;;;;;;;;;;;22.80;94.60;;;;;;4963318;28;19922;-68
2022/07/09 10:40:55;;;;;;;;;;;22.90;95.60;;;;;;4970910;28;19925;-68
2022/07/09 10:43:20;;;;;;;;;;;22.60;96.80;;;;;;4976912;28;20053;-67
2022/07/09 10:45:46;;;;;;;;;;;22.50;97.60;;;;;;4972202;28;19997;-66
2022/07/09 10:48:13;;;;;;;;;;;22.60;96.50;;;;;;4970648;28;19914;-67
2022/07/09 10:50:40;;;;;;;;;;;22.70;95.80;;;;;;4968654;28;20002;-68
2022/07/09 10:53:06;;;;;;;;;;;22.90;94.60;;;;;;4961349;28;19993;-67
2022/07/09 10:55:32;;;;;;;;;;;23.20;94.40;;;;;;4971623;28;19918;-67
2022/07/09 10:57:58;;;;;;;;;;;23.40;94.10;;;;;;4969794;28;19922;-67
2022/07/09 11:00:28;;;;;;;;;;;23.20;92.40;;;;;;4973815;28;20351;-68
2022/07/09 11:03:04;;;;;;;;;;;23.10;93.10;;;;;;4972939;28;20331;-68
2022/07/09 11:05:34;;;;;;;;;;;22.90;93.30;;;;;;4969909;28;19977;-67
2022/07/09 11:08:04;;;;;;;;;;;23.20;92.70;;;;;;4971796;28;19911;-67
2022/07/09 11:10:30;;;;;;;;;;;23.30;91.60;;;;;;4965381;28;20175;-68
2022/07/09 11:12:58;;;;;;;;;;;23.30;91.50;;;;;;4965011;28;19938;-69
2022/07/09 11:15:26;;;;;;;;;;;23.30;91.40;;;;;;4965539;28;20001;-69
2022/07/09 11:17:55;;;;;;;;;;;23.10;92.30;;;;;;4967814;28;19972;-67
2022/07/09 11:20:21;;;;;;;;;;;23.00;92.50;;;;;;4977222;28;20407;-68
2022/07/09 11:22:48;;;;;;;;;;;22.90;91.40;;;;;;4968145;28;20004;-68
2022/07/09 11:25:14;;;;;;;;;;;23.00;91.90;;;;;;4962918;28;19918;-67
2022/07/09 11:27:40;;;;;;;;;;;23.10;91.50;;;;;;4969001;28;19914;-68
2022/07/09 11:30:06;;;;;;;;;;;23.30;91.60;;;;;;4969236;28;19910;-67
2022/07/09 11:32:32;;;;;;;;;;;23.40;90.50;;;;;;4963491;28;19914;-67
2022/07/09 11:34:58;;;;;;;;;;;23.40;90.80;;;;;;4971582;28;20001;-67
2022/07/09 11:37:24;;;;;;;;;;;23.50;90.00;;;;;;4975606;28;20029;-66
2022/07/09 11:39:51;;;;;;;;;;;23.30;90.00;;;;;;4980537;28;19922;-67
2022/07/09 11:42:19;;;;;;;;;;;23.20;89.50;;;;;;4963975;28;19965;-68
2022/07/09 11:44:54;;;;;;;;;;;23.30;90.40;;;;;;4968437;28;19924;-65
2022/07/09 11:47:31;;;;;;;;;;;23.40;87.60;;;;;;4969941;28;19976;-68
2022/07/09 11:50:04;;;;;;;;;;;23.30;86.70;;;;;;4973398;28;19985;-67
2022/07/09 11:52:29;;;;;;;;;;;23.30;88.70;;;;;;4967945;28;19997;-67
2022/07/09 11:54:56;;;;;;;;;;;23.40;89.10;;;;;;4970715;28;20009;-67
2022/07/09 11:57:22;;;;;;;;;;;23.40;86.80;;;;;;4970924;28;19929;-68
2022/07/09 11:59:48;;;;;;;;;;;23.50;87.60;;;;;;4964727;28;19911;-66
2022/07/09 12:02:26;;;;;;;;;;;23.50;85.70;;;;;;4975347;28;20278;-67
2022/07/09 12:04:52;;;;;;;;;;;23.50;86.70;;;;;;4973310;28;20020;-67
2022/07/09 12:07:18;;;;;;;;;;;23.50;86.30;;;;;;4976944;28;19949;-67
2022/07/09 12:09:44;;;;;;;;;;;23.50;87.10;;;;;;4974760;28;19921;-68
2022/07/09 12:12:09;;;;;;;;;;;23.50;86.50;;;;;;4974735;28;19921;-66
2022/07/09 12:14:35;;;;;;;;;;;23.50;85.20;;;;;;4973627;28;19968;-67
2022/07/09 12:17:00;;;;;;;;;;;23.70;86.10;;;;;;4972013;28;19922;-67
2022/07/09 12:19:26;;;;;;;;;;;23.90;84.50;;;;;;4974717;28;20295;-67
2022/07/09 12:21:52;;;;;;;;;;;23.80;85.00;;;;;;4970164;28;19922;-66
2022/07/09 12:24:20;;;;;;;;;;;23.70;83.40;;;;;;4971264;28;19925;-67
2022/07/09 12:26:46;;;;;;;;;;;23.70;84.60;;;;;;4972046;28;19921;-67
2022/07/09 12:29:11;;;;;;;;;;;23.80;83.10;;;;;;4973963;28;19915;-67
2022/07/09 12:31:37;;;;;;;;;;;23.90;83.40;;;;;;4974504;28;20001;-66
2022/07/09 12:34:04;;;;;;;;;;;24.20;81.70;;;;;;4966913;28;20022;-67
2022/07/09 12:36:30;;;;;;;;;;;24.20;80.10;;;;;;4966140;28;19913;-67
2022/07/09 12:38:56;;;;;;;;;;;24.30;80.70;;;;;;4972166;28;20009;-66
2022/07/09 12:41:22;;;;;;;;;;;24.50;81.40;;;;;;4981509;28;20005;-68
2022/07/09 12:43:47;;;;;;;;;;;24.80;82.00;;;;;;4969214;28;19922;-67
2022/07/09 12:46:13;;;;;;;;;;;24.70;79.20;;;;;;4972393;28;20345;-66
2022/07/09 12:48:38;;;;;;;;;;;24.80;79.90;;;;;;4972925;28;19914;-66
2022/07/09 12:51:04;;;;;;;;;;;24.70;78.90;;;;;;4972226;28;20009;-67
2022/07/09 12:53:29;;;;;;;;;;;24.50;79.60;;;;;;4974605;28;19922;-67
2022/07/09 12:55:55;;;;;;;;;;;24.40;79.20;;;;;;4970325;28;19915;-68
2022/07/09 12:58:21;;;;;;;;;;;24.20;78.50;;;;;;4973689;28;20314;-67
2022/07/09 13:00:46;;;;;;;;;;;24.20;77.00;;;;;;4970490;28;20304;-66
2022/07/09 13:03:12;;;;;;;;;;;24.00;77.80;;;;;;4972059;28;20372;-66
2022/07/09 13:05:38;;;;;;;;;;;24.20;77.90;;;;;;4972138;28;20336;-67
2022/07/09 13:08:03;;;;;;;;;;;24.20;78.40;;;;;;4973525;28;19921;-67
2022/07/09 13:10:30;;;;;;;;;;;24.20;79.40;;;;;;4966344;28;19961;-69
2022/07/09 13:12:56;;;;;;;;;;;24.30;79.10;;;;;;4968168;28;19920;-67
2022/07/09 13:15:22;;;;;;;;;;;24.40;76.70;;;;;;4967776;28;20423;-68
2022/07/09 13:17:48;;;;;;;;;;;24.50;78.10;;;;;;4968390;28;19915;-70
2022/07/09 13:20:13;;;;;;;;;;;24.60;76.80;;;;;;4968423;28;19922;-68
2022/07/09 13:22:40;;;;;;;;;;;24.80;76.20;;;;;;4975281;28;19980;-68
2022/07/09 13:25:06;;;;;;;;;;;24.80;76.10;;;;;;4969391;28;19990;-67
2022/07/09 13:27:31;;;;;;;;;;;24.80;76.60;;;;;;4956445;28;20281;-69
2022/07/09 13:29:57;;;;;;;;;;;24.80;75.70;;;;;;4967243;28;19922;-68
2022/07/09 13:32:23;;;;;;;;;;;24.90;76.80;;;;;;4960508;28;20316;-69
2022/07/09 13:34:49;;;;;;;;;;;24.90;75.10;;;;;;4972717;28;20024;-68
2022/07/09 13:37:15;;;;;;;;;;;25.00;74.60;;;;;;4951276;28;19929;-68
2022/07/09 13:39:41;;;;;;;;;;;25.00;75.40;;;;;;4959931;28;19922;-69
2022/07/09 13:42:06;;;;;;;;;;;24.90;74.70;;;;;;4970483;28;19914;-69
2022/07/09 13:44:32;;;;;;;;;;;24.80;74.80;;;;;;4959587;28;19926;-68
2022/07/09 13:46:58;;;;;;;;;;;24.90;74.60;;;;;;4951891;28;19922;-69
2022/07/09 13:49:24;;;;;;;;;;;25.10;73.10;;;;;;4969363;28;20252;-69
2022/07/09 13:51:50;;;;;;;;;;;25.30;73.50;;;;;;4965296;28;19985;-68
2022/07/09 13:54:16;;;;;;;;;;;25.30;70.70;;;;;;4965517;28;19937;-68
2022/07/09 13:56:41;;;;;;;;;;;25.20;70.60;;;;;;4958486;28;20534;-68
2022/07/09 13:59:07;;;;;;;;;;;25.20;69.70;;;;;;4970549;28;19953;-67
2022/07/09 14:01:33;;;;;;;;;;;25.30;70.30;;;;;;4972851;28;19936;-68
2022/07/09 14:03:59;;;;;;;;;;;25.30;70.10;;;;;;4963254;28;19914;-68
2022/07/09 14:06:24;;;;;;;;;;;25.30;70.50;;;;;;4965691;28;19914;-68
2022/07/09 14:08:50;;;;;;;;;;;25.50;69.30;;;;;;4971894;28;20001;-68
2022/07/09 14:11:16;;;;;;;;;;;25.50;68.80;;;;;;4971587;28;19940;-67